Latest Weather Observations for Bunbury

IDW60801

Issued at 6:52 pm WST Tuesday 27 February 2024 (issued every 10 minutes, with the page automatically refreshed every 10 minutes)

About weather observations | Map of weather stations | Latest weather observations for WA | Other Formats
Station Details ID: 009965 Name: BUNBURY Lat: -33.36 Lon: 115.64 Height: 5.2 m
Data from the previous 72 hours. | See also: Recent months at Bunbury
Date/Time
WST
Temp
°C
App
Temp
°C
Dew
Point
°C
Rel
Hum
%
Delta-T
°C
Wind Press
QNH
hPa
Press
MSL
hPa
Rain since
9am
mm
Dir  Spd
km/h
Gust
km/h
Spd
kts
Gust
kts
27/06:30pm 26.2 22.1 4.1 24 11.1 SSE 15 20 8 11 1012.7 1012.7 0.0
27/06:00pm 27.2 23.0 3.7 22 11.7 SSE 15 22 8 12 1012.5 1012.5 0.0
27/05:30pm 28.0 23.8 3.7 21 12.2 SSE 15 24 8 13 1012.5 1012.5 0.0
27/05:00pm 28.6 25.2 4.2 21 12.4 SSE 11 24 6 13 1012.6 1012.6 0.0
27/04:30pm 28.7 24.2 4.2 21 12.5 SE 17 22 9 12 1012.7 1012.7 0.0
27/04:00pm 29.2 25.7 5.3 22 12.4 S 13 20 7 11 1012.7 1012.7 0.0
27/03:30pm 28.8 24.8 5.0 22 12.3 SSE 15 22 8 12 1013.0 1013.0 0.0
27/03:00pm 29.4 25.2 5.5 22 12.5 SSE 17 26 9 14 1013.0 1013.0 0.0
27/02:30pm 28.6 24.0 5.5 23 12.0 SSE 19 28 10 15 1013.4 1013.4 0.0
27/02:00pm 28.3 23.7 5.8 24 11.7 S 19 28 10 15 1014.0 1013.9 0.0
27/01:30pm 27.7 22.7 6.5 26 11.2 SE 22 35 12 19 1014.2 1014.1 0.0
27/01:00pm 27.0 21.6 6.4 27 10.8 SSE 24 35 13 19 1014.6 1014.5 0.0
27/12:30pm 26.6 21.6 6.6 28 10.5 S 22 30 12 16 1014.9 1014.8 0.0
27/12:00pm 25.9 21.0 7.0 30 9.9 SSE 22 33 12 18 1015.2 1015.1 0.0
27/11:30am 24.7 19.6 6.0 30 9.6 S 22 33 12 18 1015.6 1015.5 0.0
27/11:00am 23.6 18.6 6.4 33 8.8 SSE 22 35 12 19 1015.9 1015.8 0.0
27/10:30am 22.9 18.4 7.1 36 8.2 SSE 20 30 11 16 1016.3 1016.2 0.0
27/10:00am 21.7 16.5 7.2 39 7.4 SSE 24 35 13 19 1016.5 1016.4 0.0
27/09:30am 20.9 16.0 6.8 40 7.2 S 22 33 12 18 1016.6 1016.5 0.0
27/09:00am 19.5 14.6 6.9 44 6.3 S 22 32 12 17 1016.8 1016.7 0.0
27/08:30am 18.5 13.1 8.2 51 5.3 S 26 39 14 21 1016.9 1016.8 0.0
27/08:00am 17.7 14.0 9.3 58 4.4 SSE 19 28 10 15 1016.9 1016.8 0.0
27/07:30am 17.2 16.3 10.8 66 3.4 SSE 6 9 3 5 1016.9 1016.8 0.0
27/07:00am 15.9 15.8 12.1 78 2.1 S 4 6 2 3 1016.6 1016.5 0.0
27/06:30am 14.7 14.9 11.8 83 1.6 S 2 4 1 2 1016.5 1016.4 0.0
27/06:00am 15.0 15.0 12.3 84 1.5 S 4 7 2 4 1016.1 1016.0 0.0
27/05:30am 15.6 14.3 12.5 82 1.7 S 11 20 6 11 1015.6 1015.5 0.0
27/05:00am 16.0 14.3 12.6 80 1.9 S 13 26 7 14 1015.4 1015.3 0.0
27/04:30am 16.1 15.2 12.5 79 2.0 SSW 9 17 5 9 1015.3 1015.2 0.0
27/04:00am 15.6 15.1 12.2 80 1.9 S 6 9 3 5 1015.0 1014.9 0.0
27/03:30am 16.0 15.6 12.4 79 2.0 S 6 9 3 5 1015.0 1014.9 0.0
27/03:00am 16.3 15.5 12.8 80 1.9 SSW 9 17 5 9 1014.8 1014.7 0.0
27/02:30am 16.6 15.9 13.1 80 2.0 SSW 9 15 5 8 1014.4 1014.3 0.0
27/02:00am 17.0 16.0 13.3 79 2.1 S 11 15 6 8 1014.3 1014.2 0.0
27/01:30am 17.6 16.0 13.9 79 2.1 S 15 22 8 12 1014.3 1014.2 0.0
27/01:00am 17.8 16.8 14.5 81 1.9 SSW 13 19 7 10 1014.4 1014.3 0.0
27/12:30am 18.4 16.8 14.9 80 2.0 S 17 24 9 13 1014.5 1014.4 0.0
27/12:00am 18.8 17.2 15.1 79 2.2 SSW 17 26 9 14 1014.5 1014.4 0.0
 
Date/Time
WST
Temp
°C
App
Temp
°C
Dew
Point
°C
Rel
Hum
%
Delta-T
°C
Wind Press
QNH
hPa
Press
MSL
hPa
Rain since
9am
mm
Dir  Spd
km/h
Gust
km/h
Spd
kts
Gust
kts
26/11:30pm 19.4 17.7 15.7 79 2.2 SSW 19 28 10 15 1014.3 1014.2 0.0
26/11:00pm 19.6 18.7 15.9 79 2.2 SSW 15 22 8 12 1014.3 1014.2 0.0
26/10:30pm 19.8 18.5 15.7 77 2.4 S 17 28 9 15 1014.6 1014.5 0.0
26/10:00pm 20.0 18.2 15.4 75 2.7 SSW 19 28 10 15 1014.7 1014.6 0.0
26/09:30pm 20.5 17.7 15.3 72 3.1 S 24 37 13 20 1014.3 1014.2 0.0
26/09:00pm 21.1 18.4 14.7 67 3.8 SSW 22 32 12 17 1014.1 1014.0 0.0
26/08:30pm 21.7 18.6 14.4 63 4.3 S 24 39 13 21 1013.3 1013.3 0.0
26/08:00pm 22.6 20.7 15.2 63 4.4 SSW 19 30 10 16 1012.6 1012.6 0.0
26/07:30pm 23.8 22.4 14.5 56 5.5 S 15 24 8 13 1011.8 1011.8 0.0
26/07:00pm 24.7 22.1 14.8 54 5.9 SSW 22 30 12 16 1011.4 1011.4 0.0
26/06:30pm 24.1 24.9 19.0 73 3.2 SW 13 20 7 11 1010.9 1010.9 0.0
26/06:00pm 23.8 22.9 18.2 71 3.5 WSW 20 30 11 16 1010.8 1010.8 0.0
26/05:30pm 24.3 24.6 18.0 68 4.0 WSW 13 22 7 12 1010.6 1010.6 0.0
26/05:00pm 25.4 25.4 18.1 64 4.6 WSW 15 22 8 12 1010.6 1010.6 0.0
26/04:30pm 26.8 27.0 17.6 57 5.8 WSW 13 20 7 11 1010.4 1010.4 0.0
26/04:00pm 25.6 25.7 18.3 64 4.6 WSW 15 20 8 11 1010.6 1010.6 0.0
26/03:30pm 27.9 29.0 18.0 55 6.3 WSW 9 17 5 9 1010.4 1010.4 0.0
26/03:00pm 25.9 26.9 17.8 61 5.1 SW 9 13 5 7 1010.7 1010.7 0.0
26/02:30pm 24.6 24.6 17.3 64 4.5 W 13 22 7 12 1011.2 1011.2 0.0
26/02:00pm 26.3 26.0 17.4 58 5.6 WSW 15 22 8 12 1011.5 1011.5 0.0
26/01:30pm 27.2 27.5 17.9 56 5.9 WSW 13 20 7 11 1011.8 1011.8 0.0
26/01:00pm 27.3 27.2 17.8 56 6.0 W 15 19 8 10 1011.9 1011.9 0.0
26/12:30pm 27.5 28.2 17.9 55 6.1 W 11 15 6 8 1012.0 1012.0 0.0
26/12:00pm 26.7 27.3 17.8 58 5.6 W 11 15 6 8 1012.4 1012.4 0.0
26/11:30am 27.2 28.9 17.1 54 6.3 SW 4 9 2 5 1012.5 1012.5 0.0
26/11:00am 25.9 27.2 17.0 58 5.5 S 6 11 3 6 1013.2 1013.2 0.0
26/10:30am 25.2 26.5 17.1 60 5.0 SSE 6 9 3 5 1013.2 1013.2 0.0
26/10:00am 24.1 25.2 17.1 65 4.3 ESE 7 11 4 6 1013.3 1013.3 0.0
26/09:30am 23.1 24.1 16.9 68 3.8 E 7 13 4 7 1013.6 1013.6 0.0
26/09:00am 22.8 24.1 17.0 70 3.6 E 6 11 3 6 1013.6 1013.6 0.0
26/08:30am 22.6 22.9 17.1 71 3.4 ESE 11 19 6 10 1013.7 1013.7 0.0
26/08:00am 21.7 22.0 17.1 75 2.8 E 11 15 6 8 1013.8 1013.8 0.0
26/07:30am 20.5 21.6 17.1 81 2.1 E 7 13 4 7 1014.3 1014.2 0.0
26/07:00am 20.0 22.6 17.6 86 1.5 CALM 0 0 0 0 1014.4 1014.3 0.0
26/06:30am 19.5 22.0 17.3 87 1.3 CALM 0 2 0 1 1014.2 1014.1 0.0
26/06:00am 19.4 21.2 17.4 88 1.2 SE 4 6 2 3 1013.7 1013.7 0.0
26/05:30am 19.5 21.5 16.9 85 1.6 E 2 6 1 3 1014.0 1013.9 0.0
26/05:00am 19.5 21.0 16.7 84 1.7 ENE 4 9 2 5 1013.8 1013.8 0.0
26/04:30am 19.3 21.1 17.3 88 1.2 ENE 4 9 2 5 1013.6 1013.6 0.0
26/04:00am 19.5 20.6 16.7 84 1.7 ESE 6 7 3 4 1014.0 1013.9 0.0
26/03:30am 19.9 20.8 16.2 79 2.2 SE 6 9 3 5 1013.6 1013.6 0.0
26/03:00am 20.0 20.7 16.2 79 2.3 SE 7 9 4 5 1013.8 1013.8 0.0
26/02:30am 20.0 20.7 16.0 78 2.4 E 7 11 4 6 1014.0 1013.9 0.0
26/02:00am 20.0 20.0 16.2 79 2.3 E 11 17 6 9 1014.1 1014.0 0.0
26/01:30am 20.0 19.5 16.0 78 2.4 E 13 24 7 13 1014.2 1014.1 0.0
26/01:00am 20.1 19.7 16.1 78 2.4 E 13 20 7 11 1014.4 1014.3 0.0
26/12:30am 20.0 19.2 16.0 78 2.4 E 15 22 8 12 1014.6 1014.5 0.0
26/12:00am 20.2 19.0 16.0 77 2.5 E 17 28 9 15 1014.9 1014.8 0.0
 
Date/Time
WST
Temp
°C
App
Temp
°C
Dew
Point
°C
Rel
Hum
%
Delta-T
°C
Wind Press
QNH
hPa
Press
MSL
hPa
Rain since
9am
mm
Dir  Spd
km/h
Gust
km/h
Spd
kts
Gust
kts
25/11:30pm 20.3 18.7 16.1 77 2.5 E 19 28 10 15 1014.9 1014.8 0.0
25/11:00pm 20.3 19.0 15.9 76 2.6 E 17 32 9 17 1015.2 1015.1 0.0
25/10:30pm 20.6 19.7 15.8 74 2.9 E 15 26 8 14 1015.3 1015.2 0.0
25/10:00pm 20.6 19.2 15.6 73 3.0 E 17 28 9 15 1015.3 1015.2 0.0
25/09:30pm 20.6 18.8 15.4 72 3.1 E 19 33 10 18 1015.4 1015.3 0.0
25/09:00pm 20.6 18.8 15.4 72 3.1 E 19 28 10 15 1015.5 1015.4 0.0
25/08:30pm 20.6 18.8 15.4 72 3.1 E 19 26 10 14 1015.5 1015.4 0.0
25/08:00pm 20.8 19.0 15.4 71 3.2 E 19 30 10 16 1015.1 1015.0 0.0
25/07:30pm 21.0 18.9 15.1 69 3.5 ESE 20 33 11 18 1015.1 1015.0 0.0
25/07:00pm 21.5 19.6 15.1 67 3.8 E 19 32 10 17 1015.1 1015.0 0.0
25/06:30pm 21.8 19.6 14.9 65 4.1 ESE 20 32 11 17 1014.9 1014.8 0.0
25/06:00pm 22.3 19.7 14.9 63 4.4 ESE 22 33 12 18 1014.8 1014.7 0.0
25/05:30pm 22.8 20.1 14.6 60 4.8 E 22 30 12 16 1014.7 1014.6 0.0
25/05:00pm 23.6 20.8 14.3 56 5.5 ENE 22 32 12 17 1014.4 1014.3 0.0
25/04:30pm 24.2 21.0 14.3 54 5.8 ESE 24 32 13 17 1014.4 1014.3 0.0
25/04:00pm 24.9 22.1 14.4 52 6.2 ESE 22 32 12 17 1014.3 1014.2 0.0
25/03:30pm 25.0 22.2 14.2 51 6.4 E 22 33 12 18 1014.4 1014.3 0.0
25/03:00pm 24.9 22.2 14.7 53 6.1 E 22 33 12 18 1014.9 1014.8 0.0
25/02:30pm 25.4 22.7 14.5 51 6.5 ESE 22 37 12 20 1015.2 1015.1 0.0
25/02:00pm 25.1 22.4 14.6 52 6.3 E 22 30 12 16 1015.6 1015.5 0.0
25/01:30pm 25.1 22.4 14.6 52 6.3 ESE 22 32 12 17 1015.8 1015.7 0.0
25/01:00pm 25.5 22.7 14.3 50 6.6 E 22 33 12 18 1016.1 1016.0 0.0
25/12:30pm 26.4 23.5 15.1 49 6.8 E 24 33 13 18 1016.5 1016.4 0.0
25/12:00pm 25.2 22.8 14.3 50 6.5 E 20 32 11 17 1016.9 1016.8 0.0
25/11:30am 24.4 21.9 14.2 53 6.0 ESE 20 30 11 16 1017.0 1016.9 0.0
25/11:00am 25.1 22.3 14.3 51 6.4 ESE 22 32 12 17 1017.1 1017.0 0.0
25/10:30am 23.4 19.7 13.8 54 5.6 E 26 37 14 20 1017.2 1017.1 0.0
25/10:00am 23.3 19.6 14.0 56 5.4 E 26 35 14 19 1017.3 1017.2 0.0
25/09:30am 22.7 19.1 14.3 59 4.9 ESE 26 37 14 20 1017.4 1017.3 0.0
25/09:00am 21.3 18.4 14.0 63 4.2 ESE 22 33 12 18 1017.3 1017.2 0.0
25/08:30am 20.5 18.0 14.2 67 3.7 ESE 20 35 11 19 1017.1 1017.0 0.0
25/08:00am 19.4 16.9 14.0 71 3.1 ESE 20 30 11 16 1017.5 1017.4 0.0
25/07:30am 18.6 16.0 13.9 74 2.7 SE 20 30 11 16 1017.6 1017.5 0.0
25/07:00am 18.0 16.5 14.1 78 2.2 ESE 15 24 8 13 1017.7 1017.6 0.0
25/06:30am 17.1 15.8 13.6 80 2.0 SE 13 22 7 12 1017.4 1017.3 0.0
25/06:00am 17.1 15.0 13.6 80 2.0 SE 17 28 9 15 1017.0 1016.9 0.0
25/05:30am 17.2 15.1 13.5 79 2.1 SE 17 22 9 12 1017.0 1016.9 0.0
25/05:00am 17.3 15.5 13.2 77 2.3 SE 15 24 8 13 1016.6 1016.5 0.0
25/04:30am 17.6 15.3 13.1 75 2.5 SE 17 24 9 13 1016.5 1016.4 0.0
25/04:00am 17.6 14.8 12.7 73 2.7 SE 19 28 10 15 1016.3 1016.2 0.0
25/03:30am 17.7 14.8 12.8 73 2.7 SE 20 30 11 16 1016.2 1016.1 0.0
25/03:00am 17.9 15.0 13.0 73 2.7 SE 20 28 11 15 1016.3 1016.2 0.0
25/02:30am 17.6 15.7 13.1 75 2.5 ESE 15 22 8 12 1016.2 1016.1 0.0
25/02:00am 17.2 15.9 12.5 74 2.6 SE 11 15 6 8 1016.7 1016.6 0.0
25/01:30am 17.7 15.9 12.2 70 3.0 SE 13 19 7 10 1016.9 1016.8 0.0
25/01:00am 18.1 15.6 12.3 69 3.2 SE 17 26 9 14 1017.0 1016.9 0.0
25/12:30am 18.3 16.1 12.1 67 3.4 SE 15 26 8 14 1017.2 1017.1 0.0
25/12:00am 18.6 15.5 11.7 64 3.8 SE 19 28 10 15 1017.1 1017.0 0.0
 
Date/Time
WST
Temp
°C
App
Temp
°C
Dew
Point
°C
Rel
Hum
%
Delta-T
°C
Wind Press
QNH
hPa
Press
MSL
hPa
Rain since
9am
mm
Dir  Spd
km/h
Gust
km/h
Spd
kts
Gust
kts
24/11:30pm 19.2 15.8 11.3 60 4.3 SE 20 30 11 16 1017.0 1016.9 0.0
24/11:00pm 19.2 16.7 11.0 59 4.5 SE 15 24 8 13 1016.3 1016.2 0.0
24/10:30pm 19.8 17.0 11.3 58 4.7 SE 17 26 9 14 1016.0 1015.9 0.0
24/10:00pm 20.2 17.4 11.4 57 4.8 SE 17 32 9 17 1015.7 1015.6 0.0
24/09:30pm 20.5 17.8 11.7 57 4.9 SSE 17 26 9 14 1015.2 1015.1 0.0
24/09:00pm 21.2 17.9 11.5 54 5.4 SSE 20 30 11 16 1015.1 1015.0 0.0
24/08:30pm 21.9 18.8 11.6 52 5.7 SSE 19 32 10 17 1015.2 1015.1 0.0
24/08:00pm 22.6 19.5 11.7 50 6.1 SSE 19 24 10 13 1014.9 1014.8 0.0
24/07:30pm 23.5 20.5 11.9 48 6.6 SSE 19 32 10 17 1014.4 1014.3 0.0
24/07:00pm 24.3 21.7 11.9 45 7.0 SSE 17 26 9 14 1014.1 1014.0 0.0

Other formats

Comma delimited format used in spreadsheet applications
http://www.bom.gov.au/fwo/IDW60801/IDW60801.94604.axf

JavaScript Object Notation format (JSON) in row-major order
http://www.bom.gov.au/fwo/IDW60801/IDW60801.94604.json

Data quality

Most of these data are generated automatically and are frequently updated. Quality checks on data are not normally performed. It is possible for incorrect values to appear. Refer to information at About Latest Weather Observations and please check the disclaimer before using these data.